Time;durP1;ratioP1;P1;durP2;ratioP2;P2;SDS_P1;SDS_P2;PMS_P1;PMS_P2;Temp;Humidity;BMP_temperature;BMP_pressure;BME280_temperature;BME280_humidity;BME280_pressure;Samples;Min_cycle;Max_cycle;Signal;HPM_P1;HPM_P2
2021/09/25 00:00:05;;;;;;;4.45;2.70;;;18.20;80.70;;;;;;5094975;28;20164;-79
2021/09/25 00:02:33;;;;;;;2.90;2.40;;;18.20;80.70;;;;;;5113362;28;20019;-79
2021/09/25 00:04:59;;;;;;;3.85;2.90;;;18.20;80.70;;;;;;5095115;28;20028;-80
2021/09/25 00:07:24;;;;;;;3.88;2.80;;;18.20;80.60;;;;;;5113343;28;20030;-80
2021/09/25 00:09:50;;;;;;;5.05;2.55;;;18.20;80.60;;;;;;5113219;28;20019;-79
2021/09/25 00:12:16;;;;;;;3.30;2.53;;;18.20;80.60;;;;;;5095441;28;20066;-79
2021/09/25 00:14:42;;;;;;;4.53;2.80;;;18.20;80.60;;;;;;5113377;28;20027;-79
2021/09/25 00:17:10;;;;;;;3.78;2.47;;;18.20;80.50;;;;;;5094812;28;20020;-79
2021/09/25 00:19:37;;;;;;;4.13;2.60;;;18.20;80.50;;;;;;5094860;28;20020;-80
2021/09/25 00:22:04;;;;;;;3.72;2.38;;;18.20;80.50;;;;;;5097162;28;20027;-80
2021/09/25 00:24:30;;;;;;;2.95;2.40;;;18.20;80.50;;;;;;5098873;28;20022;-80
2021/09/25 00:26:56;;;;;;;4.15;2.35;;;18.30;80.50;;;;;;5098852;28;20024;-79
2021/09/25 00:29:21;;;;;;;3.67;2.50;;;18.20;80.40;;;;;;5098918;28;20357;-79
2021/09/25 00:31:47;;;;;;;4.32;2.42;;;18.20;80.40;;;;;;5098373;28;20040;-79
2021/09/25 00:34:13;;;;;;;2.50;2.25;;;18.20;80.40;;;;;;5082162;28;20024;-79
2021/09/25 00:36:39;;;;;;;4.00;2.70;;;18.20;80.30;;;;;;5098430;28;20112;-79
2021/09/25 00:39:04;;;;;;;3.90;2.55;;;18.20;80.20;;;;;;5116629;28;20019;-79
2021/09/25 00:41:30;;;;;;;5.03;2.60;;;18.20;80.20;;;;;;5098593;28;20337;-80
2021/09/25 00:43:56;;;;;;;2.78;2.20;;;18.20;80.10;;;;;;5098465;28;20055;-78
2021/09/25 00:46:22;;;;;;;5.43;2.65;;;18.20;80.10;;;;;;5098525;28;20490;-79
2021/09/25 00:48:49;;;;;;;3.78;2.60;;;18.20;80.10;;;;;;5116612;28;20041;-80
2021/09/25 00:51:16;;;;;;;3.90;2.60;;;18.20;80.00;;;;;;5098325;28;20028;-80
2021/09/25 00:53:42;;;;;;;3.30;2.50;;;18.10;79.90;;;;;;5098439;28;20019;-80
2021/09/25 00:56:09;;;;;;;3.47;2.55;;;18.10;79.80;;;;;;5116591;28;20035;-79
2021/09/25 00:58:37;;;;;;;5.65;2.35;;;18.10;79.80;;;;;;5098231;28;20073;-79
2021/09/25 01:01:03;;;;;;;4.85;2.58;;;18.10;79.80;;;;;;5098132;28;20027;-79
2021/09/25 01:03:28;;;;;;;3.65;2.40;;;18.00;79.80;;;;;;5098101;28;20028;-80
2021/09/25 01:05:54;;;;;;;3.05;2.10;;;18.00;79.80;;;;;;5098282;28;20070;-80
2021/09/25 01:08:23;;;;;;;6.68;2.50;;;18.00;79.70;;;;;;5097835;28;20043;-80
2021/09/25 01:10:53;;;;;;;2.40;2.20;;;18.00;79.70;;;;;;5097821;28;20027;-80
2021/09/25 01:13:21;;;;;;;3.08;2.25;;;18.00;79.70;;;;;;5097912;28;20166;-80
2021/09/25 01:15:46;;;;;;;3.63;2.13;;;18.00;79.70;;;;;;5097608;28;20027;-79
2021/09/25 01:18:12;;;;;;;4.80;2.33;;;18.00;79.70;;;;;;5097432;28;20020;-79
2021/09/25 01:20:38;;;;;;;4.70;2.42;;;18.00;79.70;;;;;;5097752;28;20023;-81
2021/09/25 01:23:04;;;;;;;4.05;2.13;;;18.00;79.60;;;;;;5115695;28;20023;-80
2021/09/25 01:25:30;;;;;;;4.40;2.40;;;18.00;79.60;;;;;;5097622;28;20077;-80
2021/09/25 01:27:58;;;;;;;2.60;2.10;;;18.00;79.60;;;;;;5094651;28;20055;-80
2021/09/25 01:30:24;;;;;;;3.15;2.03;;;17.90;79.60;;;;;;5097094;28;20100;-80
2021/09/25 01:32:51;;;;;;;3.25;2.13;;;18.00;79.60;;;;;;5096602;28;20030;-80
2021/09/25 01:35:20;;;;;;;2.55;2.13;;;18.00;79.60;;;;;;5115298;28;20034;-80
2021/09/25 01:37:47;;;;;;;3.42;2.92;;;18.00;79.60;;;;;;5097026;28;20024;-80
2021/09/25 01:40:14;;;;;;;3.63;2.55;;;17.90;79.50;;;;;;5097079;28;20066;-80
2021/09/25 01:42:41;;;;;;;4.25;2.70;;;18.00;79.60;;;;;;5096959;28;20530;-80
2021/09/25 01:45:07;;;;;;;3.00;2.63;;;18.00;79.70;;;;;;5096887;28;20432;-81
2021/09/25 01:47:33;;;;;;;6.03;2.92;;;17.90;79.70;;;;;;5093978;28;20040;-80
2021/09/25 01:50:01;;;;;;;4.32;3.20;;;17.90;79.70;;;;;;5115076;28;20118;-80
2021/09/25 01:52:27;;;;;;;5.32;3.33;;;18.00;79.90;;;;;;5096737;28;20047;-80
2021/09/25 01:54:53;;;;;;;4.50;3.00;;;18.00;79.90;;;;;;5115311;28;20042;-80
2021/09/25 01:57:19;;;;;;;3.65;3.08;;;17.90;79.90;;;;;;5096711;28;20090;-80
2021/09/25 01:59:45;;;;;;;3.85;3.50;;;17.90;79.90;;;;;;5096618;28;20169;-80
2021/09/25 02:02:12;;;;;;;4.80;3.47;;;18.00;80.00;;;;;;5114923;28;20616;-80
2021/09/25 02:04:38;;;;;;;5.90;3.28;;;17.90;80.00;;;;;;5096575;28;20028;-80
2021/09/25 02:07:05;;;;;;;4.72;3.50;;;17.90;80.00;;;;;;5096527;28;20063;-80
2021/09/25 02:09:32;;;;;;;6.95;3.75;;;17.90;80.00;;;;;;5096425;28;20028;-80
2021/09/25 02:11:57;;;;;;;6.28;3.80;;;17.90;80.10;;;;;;5096385;28;20036;-80
2021/09/25 02:14:23;;;;;;;4.68;3.65;;;18.00;80.20;;;;;;5096401;28;20027;-80
2021/09/25 02:16:49;;;;;;;5.90;3.80;;;18.00;80.30;;;;;;5114617;28;20027;-80
2021/09/25 02:19:15;;;;;;;5.28;4.10;;;17.90;80.20;;;;;;5096360;28;20023;-80
2021/09/25 02:21:40;;;;;;;5.30;3.63;;;17.90;80.30;;;;;;5096422;28;20123;-80
2021/09/25 02:24:06;;;;;;;5.13;4.10;;;17.90;80.30;;;;;;5096167;28;20051;-81
2021/09/25 02:26:34;;;;;;;5.55;4.10;;;17.90;80.30;;;;;;5114591;28;20023;-80
2021/09/25 02:28:59;;;;;;;6.22;4.13;;;17.90;80.40;;;;;;5096344;28;20028;-80
2021/09/25 02:31:25;;;;;;;6.15;4.43;;;17.90;80.40;;;;;;5095954;28;20542;-80
2021/09/25 02:33:51;;;;;;;5.50;4.30;;;17.90;80.40;;;;;;5096076;28;20499;-80
2021/09/25 02:36:16;;;;;;;6.03;4.00;;;17.90;80.50;;;;;;5114546;28;20023;-80
2021/09/25 02:38:42;;;;;;;5.38;4.32;;;17.80;80.50;;;;;;5096079;28;20035;-80
2021/09/25 02:41:08;;;;;;;4.85;4.13;;;17.80;80.50;;;;;;5096325;28;20437;-79
2021/09/25 02:43:35;;;;;;;5.80;4.30;;;17.80;80.60;;;;;;5095184;28;20059;-82
2021/09/25 02:46:01;;;;;;;6.68;4.13;;;17.80;80.60;;;;;;5095946;28;20044;-80
2021/09/25 02:48:26;;;;;;;7.10;4.40;;;17.80;80.70;;;;;;5114348;28;20031;-80
2021/09/25 02:50:52;;;;;;;5.15;4.10;;;17.80;80.70;;;;;;5095988;28;20456;-80
2021/09/25 02:53:18;;;;;;;5.32;4.18;;;17.70;80.80;;;;;;5096328;28;20081;-80
2021/09/25 02:55:43;;;;;;;5.13;4.07;;;17.70;80.80;;;;;;5095936;28;20028;-79
2021/09/25 02:58:09;;;;;;;5.13;4.15;;;17.70;80.90;;;;;;5114103;28;20421;-80
2021/09/25 03:00:35;;;;;;;4.78;3.88;;;17.70;81.00;;;;;;5114369;28;20391;-80
2021/09/25 03:03:02;;;;;;;5.30;4.10;;;17.70;81.00;;;;;;5095644;28;20027;-80
2021/09/25 03:05:28;;;;;;;6.15;3.97;;;17.60;81.00;;;;;;5113999;28;20600;-79
2021/09/25 03:07:54;;;;;;;5.72;4.07;;;17.60;81.10;;;;;;5095665;28;20067;-80
2021/09/25 03:10:19;;;;;;;6.00;3.90;;;17.60;81.20;;;;;;5095408;28;20031;-80
2021/09/25 03:12:45;;;;;;;5.78;4.18;;;17.60;81.20;;;;;;5113747;28;20020;-80
2021/09/25 03:15:11;;;;;;;5.82;4.40;;;17.50;81.20;;;;;;5095246;28;20111;-80
2021/09/25 03:17:36;;;;;;;6.47;4.47;;;17.50;81.30;;;;;;5095250;28;20083;-79
2021/09/25 03:20:04;;;;;;;6.65;4.60;;;17.50;81.30;;;;;;5095195;28;20027;-79
2021/09/25 03:22:29;;;;;;;5.88;4.80;;;17.50;81.40;;;;;;5095204;28;20040;-80
2021/09/25 03:24:55;;;;;;;7.10;4.30;;;17.50;81.40;;;;;;5095076;28;20479;-79
2021/09/25 03:27:21;;;;;;;6.18;4.68;;;17.50;81.40;;;;;;5113351;28;20039;-80
2021/09/25 03:29:46;;;;;;;6.72;4.55;;;17.50;81.40;;;;;;5095047;28;20020;-80
2021/09/25 03:32:12;;;;;;;6.30;4.68;;;17.50;81.50;;;;;;5095100;28;20535;-80
2021/09/25 03:34:37;;;;;;;6.50;4.55;;;17.50;81.40;;;;;;5095244;28;20448;-79
2021/09/25 03:37:03;;;;;;;6.43;4.75;;;17.50;81.40;;;;;;5095147;28;20031;-79
2021/09/25 03:39:29;;;;;;;6.03;4.43;;;17.50;81.50;;;;;;5095102;28;20475;-80
2021/09/25 03:41:55;;;;;;;6.57;4.65;;;17.50;81.50;;;;;;5094985;28;20065;-80
2021/09/25 03:44:21;;;;;;;7.18;4.55;;;17.50;81.50;;;;;;5095038;28;20019;-79
2021/09/25 03:46:46;;;;;;;6.35;4.57;;;17.50;81.50;;;;;;5095020;28;20035;-79
2021/09/25 03:49:12;;;;;;;8.55;4.57;;;17.50;81.50;;;;;;5095298;28;20027;-80
2021/09/25 03:51:38;;;;;;;7.10;5.07;;;17.50;81.40;;;;;;5094922;28;20340;-80
2021/09/25 03:54:04;;;;;;;8.10;5.05;;;17.50;81.40;;;;;;5113186;28;20033;-80
2021/09/25 03:56:29;;;;;;;6.78;5.13;;;17.50;81.40;;;;;;5098118;28;20063;-80
2021/09/25 03:58:55;;;;;;;6.80;5.05;;;17.50;81.40;;;;;;5099168;28;20406;-81
2021/09/25 04:01:21;;;;;;;5.80;4.85;;;17.40;81.50;;;;;;5099199;28;20066;-81
2021/09/25 04:03:46;;;;;;;5.95;4.93;;;17.50;81.60;;;;;;5098951;28;20080;-80
2021/09/25 04:06:12;;;;;;;7.65;4.97;;;17.40;81.50;;;;;;5098937;28;20036;-81
2021/09/25 04:08:38;;;;;;;7.40;5.38;;;17.40;81.50;;;;;;5098823;28;20034;-80
2021/09/25 04:11:03;;;;;;;7.43;5.32;;;17.50;81.60;;;;;;5098698;28;20038;-80
2021/09/25 04:13:29;;;;;;;6.93;5.32;;;17.40;81.50;;;;;;5098808;28;20031;-80
2021/09/25 04:15:55;;;;;;;7.25;5.57;;;17.50;81.60;;;;;;5116998;28;20038;-80
2021/09/25 04:18:21;;;;;;;7.53;5.13;;;17.40;81.50;;;;;;5116910;28;20073;-79
2021/09/25 04:20:47;;;;;;;7.68;5.50;;;17.50;81.60;;;;;;5116922;28;20494;-79
2021/09/25 04:23:12;;;;;;;6.70;5.22;;;17.50;81.60;;;;;;5116946;28;20028;-80
2021/09/25 04:25:39;;;;;;;7.20;5.00;;;17.40;81.50;;;;;;5098687;28;20024;-79
2021/09/25 04:28:07;;;;;;;6.85;4.80;;;17.40;81.50;;;;;;5098353;28;20127;-80
2021/09/25 04:30:38;;;;;;;7.20;5.10;;;17.50;81.60;;;;;;5098284;28;20044;-80
2021/09/25 04:33:06;;;;;;;7.78;5.38;;;17.50;81.60;;;;;;5098381;28;20114;-79
2021/09/25 04:35:32;;;;;;;8.70;5.07;;;17.50;81.60;;;;;;5098506;28;20081;-80
2021/09/25 04:37:59;;;;;;;9.43;5.50;;;17.40;81.50;;;;;;5095327;28;20441;-79
2021/09/25 04:40:26;;;;;;;8.40;6.05;;;17.50;81.60;;;;;;5098238;28;20024;-79
2021/09/25 04:42:52;;;;;;;7.07;5.50;;;17.50;81.60;;;;;;5098160;28;20055;-79
2021/09/25 04:45:19;;;;;;;6.95;5.25;;;17.50;81.60;;;;;;5098022;28;20039;-79
2021/09/25 04:47:45;;;;;;;8.18;5.47;;;17.40;81.50;;;;;;5098065;28;20375;-79
2021/09/25 04:50:13;;;;;;;6.97;4.85;;;17.40;81.50;;;;;;5097989;28;20099;-79
2021/09/25 04:52:39;;;;;;;7.78;5.22;;;17.40;81.50;;;;;;5097901;28;20090;-79
2021/09/25 04:58:29;;;;;;;9.05;5.93;;;17.40;81.60;;;;;;5116269;28;20114;-79
2021/09/25 05:00:58;;;;;;;6.22;5.15;;;17.40;81.60;;;;;;5097946;28;20036;-80
2021/09/25 05:03:25;;;;;;;7.10;5.15;;;17.40;81.70;;;;;;5097702;28;20410;-79
2021/09/25 05:05:51;;;;;;;5.88;4.75;;;17.30;81.70;;;;;;5115999;28;20039;-79
2021/09/25 05:08:16;;;;;;;8.40;5.93;;;17.30;81.70;;;;;;5096804;28;20034;-80
2021/09/25 05:10:42;;;;;;;8.05;5.63;;;17.30;81.80;;;;;;5097502;28;20027;-79
2021/09/25 05:13:08;;;;;;;8.35;5.30;;;17.30;81.80;;;;;;5097540;28;20072;-80
2021/09/25 05:15:33;;;;;;;7.40;5.70;;;17.30;81.80;;;;;;5097555;28;20479;-79
2021/09/25 05:17:59;;;;;;;7.35;5.10;;;17.30;81.80;;;;;;5097518;28;20548;-79
2021/09/25 05:20:25;;;;;;;6.95;5.28;;;17.30;81.80;;;;;;5097740;28;20031;-80
2021/09/25 05:22:50;;;;;;;7.40;5.18;;;17.30;81.80;;;;;;5097423;28;20027;-80
2021/09/25 05:25:16;;;;;;;6.53;5.03;;;17.30;81.80;;;;;;5097476;28;20031;-80
2021/09/25 05:27:42;;;;;;;7.43;5.32;;;17.30;81.90;;;;;;5115802;28;20108;-79
2021/09/25 05:30:10;;;;;;;6.00;4.93;;;17.30;81.80;;;;;;5097203;28;20164;-80
2021/09/25 05:32:36;;;;;;;7.25;5.38;;;17.30;81.90;;;;;;5097662;28;20024;-80
2021/09/25 05:35:02;;;;;;;9.43;5.78;;;17.30;81.90;;;;;;5097384;28;20141;-80
2021/09/25 05:37:28;;;;;;;6.60;5.10;;;17.30;81.90;;;;;;5097079;28;20100;-80
2021/09/25 05:39:54;;;;;;;7.57;5.20;;;17.30;81.90;;;;;;5097020;28;20047;-80
2021/09/25 05:42:27;;;;;;;6.85;5.38;;;17.30;81.90;;;;;;5097160;28;20023;-80
2021/09/25 05:44:54;;;;;;;8.88;4.78;;;17.30;81.90;;;;;;5097128;28;20097;-80
2021/09/25 05:47:23;;;;;;;7.65;4.60;;;17.30;81.90;;;;;;5096710;28;20047;-80
2021/09/25 05:49:49;;;;;;;6.45;5.05;;;17.30;81.80;;;;;;5096859;28;20502;-80
2021/09/25 05:52:16;;;;;;;6.38;4.55;;;17.30;81.80;;;;;;5115025;28;20027;-80
2021/09/25 05:54:42;;;;;;;6.60;4.95;;;17.30;81.80;;;;;;5115097;28;20063;-80
2021/09/25 05:57:08;;;;;;;7.32;5.00;;;17.30;81.80;;;;;;5096785;28;20019;-80
2021/09/25 05:59:34;;;;;;;7.13;4.47;;;17.30;82.40;;;;;;5096819;28;20165;-80
2021/09/25 06:02:01;;;;;;;7.38;4.95;;;17.30;81.80;;;;;;5096950;28;20043;-79
2021/09/25 06:04:27;;;;;;;7.05;4.80;;;17.30;81.80;;;;;;5096335;28;20055;-79
2021/09/25 06:06:53;;;;;;;7.07;4.97;;;17.30;81.80;;;;;;5111799;28;20131;-80
2021/09/25 06:09:19;;;;;;;5.70;4.65;;;17.30;81.80;;;;;;5096451;28;20065;-79
2021/09/25 06:11:44;;;;;;;8.52;5.32;;;17.30;81.80;;;;;;5096593;28;20031;-79
2021/09/25 06:14:10;;;;;;;5.90;4.85;;;17.30;81.80;;;;;;5096534;28;20126;-80
2021/09/25 06:16:36;;;;;;;7.10;5.00;;;17.30;81.80;;;;;;5114724;28;20425;-80
2021/09/25 06:19:01;;;;;;;6.18;4.97;;;17.40;81.80;;;;;;5096716;28;20027;-79
2021/09/25 06:21:27;;;;;;;6.25;4.65;;;17.30;81.80;;;;;;5096071;28;20034;-80
2021/09/25 06:23:52;;;;;;;7.10;4.50;;;17.30;81.80;;;;;;5096330;28;20027;-79
2021/09/25 06:26:18;;;;;;;7.63;5.15;;;17.40;81.80;;;;;;5114313;28;20028;-79
2021/09/25 06:28:47;;;;;;;6.30;4.40;;;17.30;81.80;;;;;;5096084;28;20035;-79
2021/09/25 06:31:18;;;;;;;7.68;4.93;;;17.40;81.80;;;;;;5095847;28;20044;-79
2021/09/25 06:33:44;;;;;;;6.22;4.63;;;17.40;81.80;;;;;;5093281;28;20512;-80
2021/09/25 06:36:14;;;;;;;7.82;5.22;;;17.40;81.80;;;;;;5095856;28;20020;-81
2021/09/25 06:38:39;;;;;;;8.00;4.97;;;17.40;81.80;;;;;;5096014;28;20028;-80
2021/09/25 06:41:06;;;;;;;5.82;4.78;;;17.40;81.70;;;;;;5114246;28;20034;-81
2021/09/25 06:43:32;;;;;;;6.35;4.65;;;17.40;81.80;;;;;;5095885;28;20031;-80
2021/09/25 06:45:58;;;;;;;7.45;4.75;;;17.40;81.70;;;;;;5095868;28;20032;-80
2021/09/25 06:48:24;;;;;;;6.13;4.95;;;17.50;81.80;;;;;;5095708;28;20049;-80
2021/09/25 06:50:49;;;;;;;5.28;4.32;;;17.50;81.70;;;;;;5095709;28;20041;-80
2021/09/25 06:53:15;;;;;;;6.45;4.95;;;17.50;81.60;;;;;;5114069;28;20028;-80
2021/09/25 06:55:40;;;;;;;6.28;4.82;;;17.50;81.60;;;;;;5095695;28;20508;-80
2021/09/25 06:58:06;;;;;;;6.18;4.55;;;17.60;81.60;;;;;;5095798;28;20020;-80
2021/09/25 07:00:33;;;;;;;8.20;4.50;;;17.60;81.60;;;;;;5113777;28;20051;-80
2021/09/25 07:02:58;;;;;;;5.82;4.85;;;17.60;81.50;;;;;;5095636;28;20023;-80
2021/09/25 07:05:24;;;;;;;7.90;4.57;;;17.60;81.40;;;;;;5095427;28;20020;-81
2021/09/25 07:07:50;;;;;;;6.10;4.50;;;17.60;81.40;;;;;;5095365;28;20089;-79
2021/09/25 07:10:17;;;;;;;6.07;4.65;;;17.70;81.40;;;;;;5096170;28;20020;-81
2021/09/25 07:12:43;;;;;;;8.23;4.97;;;17.70;81.30;;;;;;5095142;28;20016;-79
2021/09/25 07:15:11;;;;;;;5.80;4.43;;;17.70;81.30;;;;;;5095337;28;20020;-80
2021/09/25 07:17:37;;;;;;;7.30;4.78;;;17.80;81.20;;;;;;5092563;28;20044;-79
2021/09/25 07:20:05;;;;;;;7.30;4.38;;;17.80;81.10;;;;;;5095155;28;20107;-80
2021/09/25 07:22:32;;;;;;;5.90;4.60;;;17.80;81.10;;;;;;5095223;28;20027;-80
2021/09/25 07:24:59;;;;;;;5.18;4.65;;;17.80;81.10;;;;;;5095176;28;20210;-80
2021/09/25 07:27:26;;;;;;;6.20;4.75;;;17.90;81.10;;;;;;5095263;28;20026;-80
2021/09/25 07:29:52;;;;;;;5.80;4.78;;;17.90;81.00;;;;;;5094467;28;20043;-81
2021/09/25 07:33:00;;;;;;;6.78;5.00;;;17.90;80.90;;;;;;5095182;28;20024;-79
2021/09/25 07:35:26;;;;;;;8.65;5.50;;;18.00;80.90;;;;;;5113444;28;20028;-80
2021/09/25 07:37:52;;;;;;;6.95;5.15;;;18.00;80.80;;;;;;5113609;28;20016;-80
2021/09/25 07:40:18;;;;;;;6.95;5.03;;;18.00;80.80;;;;;;5094966;28;20030;-80
2021/09/25 07:42:44;;;;;;;6.25;4.50;;;18.10;80.80;;;;;;5095070;28;20097;-80
2021/09/25 07:45:11;;;;;;;6.32;4.85;;;18.10;80.80;;;;;;5094835;28;20493;-80
2021/09/25 07:47:37;;;;;;;7.95;5.07;;;18.10;80.70;;;;;;5095026;28;20019;-80
2021/09/25 07:50:04;;;;;;;7.07;4.93;;;18.10;80.60;;;;;;5094853;28;20019;-80
2021/09/25 07:52:32;;;;;;;7.82;5.22;;;18.20;80.70;;;;;;5094929;28;20035;-80
2021/09/25 07:54:59;;;;;;;6.68;4.80;;;18.20;80.60;;;;;;5092499;28;20055;-79
2021/09/25 07:57:26;;;;;;;7.90;5.90;;;18.20;80.60;;;;;;5113250;28;20023;-81
2021/09/25 07:59:52;;;;;;;6.53;5.20;;;18.20;80.50;;;;;;5113227;28;20073;-78
2021/09/25 08:02:18;;;;;;;6.57;4.82;;;18.20;80.60;;;;;;5095724;28;20020;-78
2021/09/25 08:08:05;;;;;;;6.50;4.60;;;18.20;80.60;;;;;;5113548;28;20027;-78
2021/09/25 08:10:31;;;;;;;6.63;4.63;;;18.30;80.60;;;;;;5112925;28;20024;-78
2021/09/25 08:12:57;;;;;;;5.40;4.40;;;18.30;80.50;;;;;;5074745;28;20094;-77
2021/09/25 08:15:22;;;;;;;6.82;4.53;;;18.30;80.40;;;;;;5094727;28;20019;-77
2021/09/25 08:17:48;;;;;;;5.82;4.35;;;18.30;80.40;;;;;;5091773;28;20028;-78
2021/09/25 08:20:16;;;;;;;7.18;4.68;;;18.30;80.30;;;;;;5095523;28;20051;-72
2021/09/25 08:22:43;;;;;;;7.90;5.07;;;18.40;80.30;;;;;;5094570;28;20023;-73
2021/09/25 08:25:09;;;;;;;7.05;4.45;;;18.40;80.20;;;;;;5112916;28;20098;-74
2021/09/25 08:27:36;;;;;;;6.63;4.88;;;18.50;80.20;;;;;;5094719;28;20372;-74
2021/09/25 08:30:03;;;;;;;6.03;5.20;;;18.50;80.10;;;;;;5094595;28;20507;-73
2021/09/25 08:32:29;;;;;;;6.07;4.85;;;18.50;80.00;;;;;;5094541;28;20020;-72
2021/09/25 08:34:55;;;;;;;6.50;5.03;;;18.50;80.00;;;;;;5112819;28;20046;-73
2021/09/25 08:37:20;;;;;;;7.68;5.13;;;18.60;80.00;;;;;;5094298;28;20015;-72
2021/09/25 08:39:46;;;;;;;6.18;4.60;;;18.60;80.00;;;;;;5112599;28;20019;-72
2021/09/25 08:42:19;;;;;;;7.65;4.45;;;18.60;79.90;;;;;;5095013;28;20436;-71
2021/09/25 08:44:52;;;;;;;7.45;5.10;;;18.70;79.90;;;;;;5098016;28;20030;-72
2021/09/25 08:47:19;;;;;;;7.72;5.03;;;18.70;79.80;;;;;;5098466;28;20016;-72
2021/09/25 08:49:45;;;;;;;8.57;5.60;;;18.70;79.80;;;;;;5116429;28;20027;-72
2021/09/25 08:52:10;;;;;;;7.95;4.85;;;18.60;79.70;;;;;;5116110;28;20098;-71
2021/09/25 08:54:36;;;;;;;6.03;4.55;;;18.60;79.80;;;;;;5097708;28;20020;-72
2021/09/25 08:57:06;;;;;;;7.47;5.45;;;18.60;79.80;;;;;;5097783;28;20012;-72
2021/09/25 08:59:32;;;;;;;7.25;4.97;;;18.70;79.90;;;;;;5116010;28;20540;-69
2021/09/25 09:02:14;;;;;;;6.22;4.70;;;18.60;79.80;;;;;;5116078;28;20035;-69
2021/09/25 09:05:00;;;;;;;8.48;5.25;;;18.60;79.90;;;;;;5097526;28;20518;-69
2021/09/25 09:07:29;;;;;;;6.68;5.43;;;18.60;79.80;;;;;;5115301;28;20114;-68
2021/09/25 09:09:57;;;;;;;7.28;5.47;;;18.60;79.90;;;;;;5115673;28;20031;-71
2021/09/25 09:12:24;;;;;;;7.53;5.35;;;18.60;79.90;;;;;;5115497;28;20020;-68
2021/09/25 09:14:52;;;;;;;6.15;4.82;;;18.60;79.90;;;;;;5097386;28;20015;-68
2021/09/25 09:17:26;;;;;;;8.18;5.22;;;18.70;79.90;;;;;;5097312;28;20047;-67
2021/09/25 09:19:53;;;;;;;8.30;5.43;;;18.70;79.90;;;;;;5116038;28;20481;-67
2021/09/25 09:22:21;;;;;;;6.95;5.40;;;18.70;79.90;;;;;;5115580;28;20023;-67
2021/09/25 09:24:49;;;;;;;7.03;5.03;;;18.70;79.90;;;;;;5115444;28;20020;-67
2021/09/25 09:27:18;;;;;;;6.95;5.50;;;18.70;79.80;;;;;;5115433;28;20095;-67
2021/09/25 09:29:43;;;;;;;7.88;6.03;;;18.80;79.80;;;;;;5096881;28;20444;-67
2021/09/25 09:32:11;;;;;;;6.53;5.32;;;18.80;79.70;;;;;;5115024;28;20071;-67
2021/09/25 09:34:41;;;;;;;9.15;5.45;;;18.90;79.70;;;;;;5115243;28;20024;-68
2021/09/25 09:37:15;;;;;;;8.65;5.90;;;18.90;79.50;;;;;;5115450;28;20024;-67
2021/09/25 09:39:40;;;;;;;;;;;19.00;79.50;;;;;;5097222;28;20022;-67
2021/09/25 09:42:06;;;;;;;6.70;4.70;;;19.00;79.40;;;;;;5115241;28;19990;-68
2021/09/25 09:44:33;;;;;;;7.38;5.72;;;19.10;79.30;;;;;;5115176;28;20023;-68
2021/09/25 09:47:04;;;;;;;7.18;5.80;;;19.10;79.30;;;;;;5115048;28;20028;-68
2021/09/25 09:49:38;;;;;;;7.78;5.57;;;19.10;79.20;;;;;;5115041;28;20020;-68
2021/09/25 09:52:14;;;;;;;7.22;5.63;;;19.20;79.20;;;;;;5114977;28;20036;-70
2021/09/25 09:54:43;;;;;;;10.40;5.93;;;19.20;79.10;;;;;;5096158;28;20387;-69
2021/09/25 09:57:17;;;;;;;7.55;5.65;;;19.30;79.00;;;;;;5114893;28;20498;-69
2021/09/25 09:59:44;;;;;;;8.52;6.15;;;19.30;78.90;;;;;;5096289;28;20065;-68
2021/09/25 10:02:10;;;;;;;7.25;5.82;;;19.30;78.80;;;;;;5096408;28;20502;-68
2021/09/25 10:04:37;;;;;;;9.73;6.10;;;19.30;78.80;;;;;;5096256;28;20427;-68
2021/09/25 10:07:04;;;;;;;7.50;5.68;;;19.40;78.80;;;;;;5114659;28;20037;-68
2021/09/25 10:09:31;;;;;;;10.02;6.10;;;19.40;78.70;;;;;;5114885;28;20165;-69
2021/09/25 10:12:00;;;;;;;8.50;5.97;;;19.50;78.60;;;;;;5114484;28;20062;-69
2021/09/25 10:14:34;;;;;;;8.27;5.88;;;19.50;78.60;;;;;;5096267;28;20114;-69
2021/09/25 10:17:02;;;;;;;9.15;6.32;;;19.50;78.40;;;;;;5114429;28;20016;-70
2021/09/25 10:19:32;;;;;;;7.95;5.38;;;19.50;78.40;;;;;;5096086;28;20047;-71
2021/09/25 10:22:12;;;;;;;9.60;5.75;;;19.60;78.40;;;;;;5096081;28;20023;-69
2021/09/25 10:24:46;;;;;;;9.52;6.07;;;19.70;78.30;;;;;;5096013;28;20538;-70
2021/09/25 10:27:12;;;;;;;7.93;5.80;;;19.70;78.10;;;;;;5114245;28;20091;-69
2021/09/25 10:29:50;;;;;;;7.63;6.03;;;19.70;78.00;;;;;;5095764;28;20108;-70
2021/09/25 10:32:24;;;;;;;8.05;5.70;;;19.80;78.00;;;;;;5114209;28;20027;-70
2021/09/25 10:35:13;;;;;;;7.95;6.07;;;19.80;78.00;;;;;;5114081;28;20026;-70
2021/09/25 10:37:46;;;;;;;11.25;5.85;;;19.80;77.80;;;;;;5113997;28;20494;-72
2021/09/25 10:40:23;;;;;;;7.00;5.38;;;19.90;77.80;;;;;;5095614;28;20016;-76
2021/09/25 10:43:01;;;;;;;7.28;5.40;;;20.00;77.70;;;;;;5114239;28;20020;-78
2021/09/25 10:45:32;;;;;;;8.65;5.65;;;20.00;77.60;;;;;;5095677;28;20125;-78
2021/09/25 10:48:23;;;;;;;7.70;5.30;;;20.10;77.50;;;;;;5095449;28;20055;-80
2021/09/25 10:51:05;;;;;;;7.85;5.95;;;20.10;77.40;;;;;;5095837;28;20024;-78
2021/09/25 10:53:34;;;;;;;8.30;5.90;;;20.10;77.40;;;;;;5092974;28;20028;-78
2021/09/25 10:56:03;;;;;;;9.32;6.30;;;20.20;77.40;;;;;;5095767;28;20065;-79
2021/09/25 10:58:37;;;;;;;8.82;6.72;;;20.20;77.30;;;;;;5095475;28;20419;-79
2021/09/25 11:01:04;;;;;;;9.20;6.63;;;20.20;77.20;;;;;;5095442;28;20110;-79
2021/09/25 11:03:48;;;;;;;9.50;6.30;;;20.30;77.10;;;;;;5114016;28;20098;-79
2021/09/25 11:06:41;;;;;;;9.18;6.55;;;20.30;77.00;;;;;;5113101;28;20250;-78
2021/09/25 11:09:24;;;;;;;9.77;7.00;;;20.40;76.90;;;;;;5083473;28;20089;-79
2021/09/25 11:11:52;;;;;;;7.88;6.32;;;20.40;76.80;;;;;;5095161;28;20020;-79
2021/09/25 11:14:30;;;;;;;8.90;6.50;;;20.50;76.80;;;;;;5095498;28;20023;-80
2021/09/25 11:17:19;;;;;;;8.63;6.50;;;20.50;76.70;;;;;;5095193;28;20471;-79
2021/09/25 11:19:58;;;;;;;9.68;6.68;;;20.50;76.50;;;;;;5082065;28;20135;-79
2021/09/25 11:22:45;;;;;;;9.38;7.07;;;20.60;76.50;;;;;;5095533;28;20033;-80
2021/09/25 11:25:17;;;;;;;11.20;7.65;;;20.60;76.40;;;;;;5113400;28;20027;-79
2021/09/25 11:27:45;;;;;;;9.13;7.33;;;20.60;76.30;;;;;;5092577;28;20024;-79
2021/09/25 11:33:38;;;;;;;9.43;6.43;;;20.70;76.20;;;;;;5112323;28;20517;-79
2021/09/25 11:36:09;;;;;;;8.65;6.63;;;20.70;76.20;;;;;;5113397;28;20024;-78
2021/09/25 11:38:44;;;;;;;9.55;6.45;;;20.70;76.10;;;;;;5095127;28;20028;-78
2021/09/25 11:41:15;;;;;;;9.73;6.90;;;20.80;75.90;;;;;;5095181;28;20046;-79
2021/09/25 11:43:41;;;;;;;10.90;7.50;;;20.90;75.80;;;;;;5092529;28;20035;-79
2021/09/25 11:46:07;;;;;;;8.90;6.53;;;20.80;75.80;;;;;;5094949;28;20398;-79
2021/09/25 11:48:35;;;;;;;10.23;7.03;;;20.90;75.70;;;;;;5113877;28;20027;-77
2021/09/25 11:51:02;;;;;;;9.85;7.80;;;21.00;75.60;;;;;;5094718;28;20024;-78
2021/09/25 11:53:30;;;;;;;9.05;6.57;;;21.00;75.60;;;;;;5095190;28;20028;-79
2021/09/25 11:55:58;;;;;;;9.60;7.35;;;21.00;75.50;;;;;;5095095;28;20111;-78
2021/09/25 11:58:25;;;;;;;11.70;8.00;;;21.10;75.40;;;;;;5095153;28;20106;-78
2021/09/25 12:00:53;;;;;;;11.35;8.82;;;21.20;75.30;;;;;;5095247;28;20123;-80
2021/09/25 12:03:21;;;;;;;11.30;8.43;;;21.20;75.10;;;;;;5095038;28;20028;-80
2021/09/25 12:05:53;;;;;;;13.02;8.63;;;21.30;75.00;;;;;;5094922;28;20035;-78
2021/09/25 12:08:24;;;;;;;11.68;8.70;;;21.40;74.90;;;;;;5113290;28;20093;-77
2021/09/25 12:10:51;;;;;;;8.50;7.05;;;21.40;74.80;;;;;;5094602;28;20020;-77
2021/09/25 12:13:31;;;;;;;9.90;7.65;;;21.40;74.70;;;;;;5094559;28;20467;-79
2021/09/25 12:16:00;;;;;;;10.30;7.63;;;21.50;74.50;;;;;;5095469;28;20076;-79
2021/09/25 12:18:30;;;;;;;11.98;8.30;;;21.50;74.40;;;;;;5117023;28;20494;-78
2021/09/25 12:21:00;;;;;;;8.38;6.65;;;21.50;74.50;;;;;;5099091;28;20101;-78
2021/09/25 12:23:35;;;;;;;8.95;7.07;;;21.50;74.40;;;;;;5098509;28;20527;-78
2021/09/25 12:26:02;;;;;;;11.10;7.00;;;21.60;74.30;;;;;;5098487;28;20028;-79
2021/09/25 12:28:32;;;;;;;10.43;7.97;;;21.60;74.20;;;;;;5095440;28;20040;-78
2021/09/25 12:31:01;;;;;;;8.77;5.85;;;21.70;74.10;;;;;;5116589;28;20038;-79
2021/09/25 12:33:27;;;;;;;10.20;7.53;;;21.70;74.00;;;;;;5098205;28;20036;-79
2021/09/25 12:36:00;;;;;;;10.32;7.15;;;21.70;73.90;;;;;;5098574;28;20151;-79
2021/09/25 12:38:27;;;;;;;;;;;21.70;73.90;;;;;;5098737;28;20479;-79
2021/09/25 12:40:58;;;;;;;12.15;8.40;;;21.80;74.00;;;;;;5098200;28;19907;-79
2021/09/25 12:43:24;;;;;;;10.82;7.70;;;21.70;73.90;;;;;;5098115;28;20088;-80
2021/09/25 12:46:06;;;;;;;10.85;7.90;;;21.70;73.90;;;;;;5097726;28;20040;-79
2021/09/25 12:48:31;;;;;;;9.65;7.25;;;21.70;73.90;;;;;;5098416;28;20480;-79
2021/09/25 12:50:57;;;;;;;9.32;6.85;;;21.70;73.90;;;;;;5097903;28;20134;-78
2021/09/25 12:53:23;;;;;;;9.80;7.20;;;21.70;73.90;;;;;;5097918;28;20115;-79
2021/09/25 12:55:48;;;;;;;9.70;7.75;;;21.70;73.80;;;;;;5116330;28;20028;-78
2021/09/25 12:58:17;;;;;;;11.40;7.30;;;21.80;73.80;;;;;;5098107;28;20077;-78